Time;durP1;ratioP1;P1;durP2;ratioP2;P2;SDS_P1;SDS_P2;PMS_P1;PMS_P2;Temp;Humidity;BMP_temperature;BMP_pressure;BME280_temperature;BME280_humidity;BME280_pressure;Samples;Min_cycle;Max_cycle;Signal;HPM_P1;HPM_P2
2021/10/29 00:00:29;;;;;;;9.43;5.15;;;14.40;59.30;;;;;;6199790;28;20045;-74
2021/10/29 00:03:37;;;;;;;11.27;4.78;;;14.40;59.30;;;;;;6200303;28;20042;-73
2021/10/29 00:06:38;;;;;;;10.13;5.10;;;14.40;59.40;;;;;;6199035;28;20177;-74
2021/10/29 00:09:39;;;;;;;11.57;5.45;;;14.30;59.30;;;;;;6198687;28;20034;-73
2021/10/29 00:12:40;;;;;;;13.43;5.72;;;14.40;59.30;;;;;;6199792;28;20042;-75
2021/10/29 00:15:41;;;;;;;15.23;5.60;;;14.40;59.30;;;;;;6201038;28;20034;-74
2021/10/29 00:18:42;;;;;;;9.90;5.20;;;14.40;59.30;;;;;;6199295;28;20030;-74
2021/10/29 00:21:43;;;;;;;12.82;5.32;;;14.40;59.40;;;;;;6197506;28;20088;-74
2021/10/29 00:24:44;;;;;;;11.30;5.03;;;14.30;59.40;;;;;;6199313;28;20042;-74
2021/10/29 00:27:45;;;;;;;12.90;5.85;;;14.40;59.40;;;;;;6183064;28;20101;-74
2021/10/29 00:30:46;;;;;;;9.80;5.00;;;14.30;59.40;;;;;;6198890;28;20057;-73
2021/10/29 00:33:47;;;;;;;17.13;5.03;;;14.30;59.40;;;;;;6200020;28;20419;-73
2021/10/29 00:36:48;;;;;;;14.35;5.32;;;14.30;59.50;;;;;;6199762;28;20114;-74
2021/10/29 00:39:49;;;;;;;8.38;4.82;;;14.20;59.50;;;;;;6197257;28;20053;-74
2021/10/29 00:42:50;;;;;;;14.65;6.30;;;14.20;59.60;;;;;;6198594;28;20400;-74
2021/10/29 00:45:51;;;;;;;12.35;5.65;;;14.20;59.70;;;;;;6198943;28;20046;-74
2021/10/29 00:48:52;;;;;;;12.73;5.28;;;14.20;59.70;;;;;;6200194;28;20105;-73
2021/10/29 00:51:53;;;;;;;9.40;4.95;;;14.20;59.80;;;;;;6199324;28;20039;-74
2021/10/29 00:54:55;;;;;;;11.38;5.30;;;14.20;59.80;;;;;;6194413;28;20038;-74
2021/10/29 00:57:56;;;;;;;10.50;5.03;;;14.20;59.80;;;;;;6199739;28;20038;-73
2021/10/29 01:00:57;;;;;;;11.13;5.82;;;14.20;59.80;;;;;;6199856;28;20073;-74
2021/10/29 01:03:58;;;;;;;11.55;5.40;;;14.20;59.80;;;;;;6200002;28;20042;-73
2021/10/29 01:06:59;;;;;;;9.82;5.07;;;14.20;59.80;;;;;;6197777;28;20532;-75
2021/10/29 01:10:00;;;;;;;11.88;5.53;;;14.20;59.70;;;;;;6182124;28;20337;-73
2021/10/29 01:13:01;;;;;;;12.48;5.60;;;14.20;59.70;;;;;;6200618;28;20411;-73
2021/10/29 01:16:02;;;;;;;21.25;6.15;;;14.20;59.60;;;;;;6199643;28;20096;-73
2021/10/29 01:19:04;;;;;;;9.98;5.60;;;14.20;59.60;;;;;;6199768;28;20475;-73
2021/10/29 01:22:05;;;;;;;11.00;5.40;;;14.20;59.70;;;;;;6199326;28;20035;-74
2021/10/29 01:25:06;;;;;;;15.00;5.35;;;14.20;59.70;;;;;;6199340;28;20038;-74
2021/10/29 01:28:11;;;;;;;11.27;5.25;;;14.10;59.70;;;;;;6199295;28;20026;-74
2021/10/29 01:31:13;;;;;;;11.18;5.35;;;14.10;59.80;;;;;;6199245;28;20030;-74
2021/10/29 01:34:14;;;;;;;11.75;5.57;;;14.00;59.80;;;;;;6200477;28;20118;-74
2021/10/29 01:37:15;;;;;;;9.75;5.32;;;14.00;60.00;;;;;;6200348;28;20468;-74
2021/10/29 01:40:17;;;;;;;12.45;5.65;;;13.90;60.10;;;;;;6198513;28;20165;-74
2021/10/29 01:43:18;;;;;;;13.32;5.25;;;13.80;60.30;;;;;;6199823;28;20518;-74
2021/10/29 01:46:19;;;;;;;19.23;6.07;;;13.70;60.50;;;;;;6200252;28;20038;-74
2021/10/29 01:49:21;;;;;;;15.25;5.93;;;13.70;60.60;;;;;;6180828;28;20432;-74
2021/10/29 01:52:22;;;;;;;13.60;5.78;;;13.70;60.80;;;;;;6176940;28;20396;-74
2021/10/29 01:55:23;;;;;;;17.30;6.22;;;13.60;60.80;;;;;;6199407;28;20046;-74
2021/10/29 01:58:24;;;;;;;9.77;5.20;;;13.60;60.80;;;;;;6182467;28;20058;-74
2021/10/29 02:01:25;;;;;;;11.63;5.35;;;13.60;60.90;;;;;;6183811;28;20035;-74
2021/10/29 02:04:26;;;;;;;15.63;6.55;;;13.60;61.00;;;;;;6199027;28;20475;-74
2021/10/29 02:07:27;;;;;;;15.73;5.97;;;13.60;61.10;;;;;;6205411;28;20081;-74
2021/10/29 02:10:28;;;;;;;20.67;5.68;;;13.60;61.20;;;;;;6198492;28;20034;-74
2021/10/29 02:13:29;;;;;;;13.85;6.28;;;13.60;61.20;;;;;;6199206;28;20042;-74
2021/10/29 02:16:30;;;;;;;17.35;6.07;;;13.60;61.20;;;;;;6199543;28;20030;-74
2021/10/29 02:19:31;;;;;;;13.57;6.35;;;13.60;61.20;;;;;;6198474;28;20065;-74
2021/10/29 02:22:32;;;;;;;12.18;5.78;;;13.50;61.10;;;;;;6181080;28;20102;-75
2021/10/29 02:25:34;;;;;;;12.02;5.47;;;13.50;61.10;;;;;;6199051;28;20038;-73
2021/10/29 02:28:35;;;;;;;15.10;5.32;;;13.50;61.10;;;;;;6198042;28;20117;-73
2021/10/29 02:31:39;;;;;;;14.82;5.93;;;13.50;61.20;;;;;;6197669;28;20038;-73
2021/10/29 02:34:40;;;;;;;15.80;5.72;;;13.40;61.20;;;;;;6198699;28;20054;-74
2021/10/29 02:37:41;;;;;;;12.65;5.82;;;13.40;61.30;;;;;;6198915;28;20101;-74
2021/10/29 02:40:42;;;;;;;11.82;5.10;;;13.30;61.50;;;;;;6197695;28;20415;-74
2021/10/29 02:43:45;;;;;;;15.50;6.15;;;13.20;61.70;;;;;;6181154;28;20349;-74
2021/10/29 02:46:46;;;;;;;10.23;6.03;;;13.10;61.90;;;;;;6197556;28;20042;-74
2021/10/29 02:49:47;;;;;;;14.02;5.45;;;13.10;62.10;;;;;;6196867;28;20045;-74
2021/10/29 02:52:49;;;;;;;10.40;4.82;;;13.10;62.20;;;;;;6197424;28;20073;-74
2021/10/29 02:55:50;;;;;;;12.50;5.70;;;13.00;62.20;;;;;;6198347;28;20388;-75
2021/10/29 02:58:51;;;;;;;11.48;5.63;;;13.00;62.30;;;;;;6197363;28;20105;-74
2021/10/29 03:01:52;;;;;;;11.32;5.28;;;13.00;62.40;;;;;;6198219;28;20053;-75
2021/10/29 03:04:54;;;;;;;13.18;5.43;;;13.00;62.40;;;;;;6180164;28;20042;-75
2021/10/29 03:07:55;;;;;;;15.13;5.90;;;13.00;62.40;;;;;;6181274;28;20069;-74
2021/10/29 03:10:56;;;;;;;11.73;5.45;;;12.90;62.20;;;;;;6197032;28;20138;-74
2021/10/29 03:13:57;;;;;;;12.27;6.13;;;12.90;62.20;;;;;;6197278;28;20034;-74
2021/10/29 03:16:58;;;;;;;10.43;5.88;;;12.90;62.30;;;;;;6196476;28;20038;-74
2021/10/29 03:19:59;;;;;;;13.55;6.25;;;12.90;62.40;;;;;;6177705;28;20061;-74
2021/10/29 03:23:00;;;;;;;17.38;5.95;;;12.80;62.40;;;;;;6196946;28;20042;-74
2021/10/29 03:26:00;;;;;;;14.25;5.43;;;12.80;62.50;;;;;;6180367;28;20039;-74
2021/10/29 03:29:01;;;;;;;14.27;5.38;;;12.80;62.50;;;;;;6196860;28;20031;-74
2021/10/29 03:32:02;;;;;;;10.07;4.90;;;12.80;62.40;;;;;;6197541;28;20034;-74
2021/10/29 03:35:04;;;;;;;15.85;5.60;;;12.80;62.50;;;;;;6196492;28;20038;-74
2021/10/29 03:38:40;;;;;;;12.95;5.15;;;12.80;62.40;;;;;;6195789;28;20045;-74
2021/10/29 03:41:50;;;;;;;18.30;5.43;;;12.80;62.40;;;;;;6195139;28;20046;-74
2021/10/29 03:47:55;;;;;;;15.15;5.78;;;12.70;62.40;;;;;;6196264;28;20048;-74
2021/10/29 03:51:07;;;;;;;10.63;4.55;;;12.70;62.30;;;;;;6195735;28;20406;-74
2021/10/29 03:57:23;;;;;;;15.95;5.03;;;12.70;62.40;;;;;;6195252;28;20062;-74
2021/10/29 04:00:28;;;;;;;10.82;5.25;;;12.70;62.30;;;;;;6179761;28;20117;-74
2021/10/29 04:03:29;;;;;;;11.95;5.60;;;12.70;62.30;;;;;;6196934;28;20038;-74
2021/10/29 04:06:30;;;;;;;14.60;5.65;;;12.70;62.30;;;;;;6179868;28;20117;-74
2021/10/29 04:09:31;;;;;;;20.00;5.47;;;12.60;62.20;;;;;;6197342;28;20085;-75
2021/10/29 04:12:32;;;;;;;14.50;5.47;;;12.70;62.20;;;;;;6197394;28;20040;-74
2021/10/29 04:15:33;;;;;;;14.90;5.43;;;12.70;62.20;;;;;;6196391;28;20045;-74
2021/10/29 04:18:34;;;;;;;12.32;5.90;;;12.70;62.20;;;;;;6194429;28;20364;-74
2021/10/29 04:21:38;;;;;;;15.05;5.15;;;12.60;62.20;;;;;;6211286;28;20042;-74
2021/10/29 04:24:39;;;;;;;14.40;4.97;;;12.60;62.20;;;;;;6194393;28;20042;-74
2021/10/29 04:27:45;;;;;;;11.80;5.13;;;12.60;62.20;;;;;;6199181;28;20073;-74
2021/10/29 04:30:46;;;;;;;18.30;5.20;;;12.60;62.20;;;;;;6199795;28;20368;-74
2021/10/29 04:33:48;;;;;;;11.43;5.72;;;12.60;62.30;;;;;;6200544;28;20050;-73
2021/10/29 04:36:50;;;;;;;12.30;5.50;;;12.50;62.30;;;;;;6195354;28;20049;-73
2021/10/29 04:39:51;;;;;;;12.07;5.60;;;12.50;62.40;;;;;;6198824;28;20059;-74
2021/10/29 04:42:52;;;;;;;21.15;5.30;;;12.50;62.40;;;;;;6200181;28;20042;-73
2021/10/29 04:45:53;;;;;;;10.95;5.85;;;12.40;62.50;;;;;;6201252;28;20432;-73
2021/10/29 04:48:54;;;;;;;13.63;5.70;;;12.40;62.70;;;;;;6200277;28;20088;-74
2021/10/29 04:51:57;;;;;;;17.00;6.18;;;12.40;62.80;;;;;;6199625;28;20377;-73
2021/10/29 04:54:59;;;;;;;15.65;5.72;;;12.20;62.80;;;;;;6199801;28;20454;-73
2021/10/29 04:57:59;;;;;;;16.35;5.50;;;12.20;63.10;;;;;;6200058;28;20030;-73
2021/10/29 05:01:00;;;;;;;14.68;5.57;;;12.20;63.20;;;;;;6199667;28;20452;-74
2021/10/29 05:04:01;;;;;;;14.50;6.47;;;12.10;63.30;;;;;;6200549;28;20038;-73
2021/10/29 05:07:03;;;;;;;13.80;5.45;;;12.10;63.50;;;;;;6199159;28;20042;-73
2021/10/29 05:10:05;;;;;;;16.90;5.72;;;12.10;63.60;;;;;;6198364;28;20045;-74
2021/10/29 05:13:06;;;;;;;12.73;5.32;;;12.10;63.60;;;;;;6200482;28;20487;-74
2021/10/29 05:16:07;;;;;;;15.88;5.30;;;12.10;63.50;;;;;;6180368;28;20142;-75
2021/10/29 05:19:08;;;;;;;15.38;6.00;;;12.10;63.50;;;;;;6198943;28;20791;-75
2021/10/29 05:22:09;;;;;;;18.35;5.65;;;12.00;63.50;;;;;;6200373;28;20046;-74
2021/10/29 05:25:10;;;;;;;12.18;5.32;;;12.00;63.50;;;;;;6199729;28;20411;-73
2021/10/29 05:28:11;;;;;;;15.18;6.28;;;12.00;63.60;;;;;;6198641;28;20034;-73
2021/10/29 05:31:12;;;;;;;22.52;6.18;;;12.00;63.60;;;;;;6200073;28;20124;-74
2021/10/29 05:34:12;;;;;;;13.05;5.60;;;12.00;63.60;;;;;;6199966;28;20492;-74
2021/10/29 05:37:13;;;;;;;8.73;5.13;;;12.00;63.60;;;;;;6198963;28;20050;-74
2021/10/29 05:40:15;;;;;;;9.93;4.47;;;12.10;63.50;;;;;;6199403;28;20034;-74
2021/10/29 05:43:15;;;;;;;10.57;4.50;;;12.00;63.30;;;;;;6199890;28;20413;-75
2021/10/29 05:46:16;;;;;;;10.68;4.97;;;12.00;63.20;;;;;;6199898;28;20045;-74
2021/10/29 05:49:18;;;;;;;10.55;5.25;;;12.00;63.20;;;;;;6193435;28;20365;-75
2021/10/29 05:52:21;;;;;;;14.52;5.20;;;12.00;63.20;;;;;;6196625;28;20427;-75
2021/10/29 05:55:22;;;;;;;15.57;5.90;;;12.00;63.20;;;;;;6205458;28;20038;-75
2021/10/29 05:58:23;;;;;;;21.80;5.80;;;12.00;63.10;;;;;;6198543;28;20117;-75
2021/10/29 06:01:24;;;;;;;21.90;4.97;;;11.90;63.10;;;;;;6199261;28;20477;-75
2021/10/29 06:04:27;;;;;;;11.80;5.32;;;11.90;63.10;;;;;;6199227;28;20035;-76
2021/10/29 06:07:28;;;;;;;11.63;4.90;;;11.90;63.10;;;;;;6198252;28;20042;-76
2021/10/29 06:10:29;;;;;;;12.55;5.22;;;11.90;63.00;;;;;;6197781;28;20038;-75
2021/10/29 06:13:30;;;;;;;10.23;5.15;;;11.90;63.00;;;;;;6198331;28;20022;-76
2021/10/29 06:16:31;;;;;;;20.90;6.47;;;11.80;62.90;;;;;;6196357;28;20401;-76
2021/10/29 06:19:32;;;;;;;22.27;5.28;;;11.80;63.00;;;;;;6197130;28;20038;-76
2021/10/29 06:22:36;;;;;;;11.57;4.38;;;11.80;63.00;;;;;;6197223;28;20093;-75
2021/10/29 06:25:47;;;;;;;12.57;5.47;;;11.70;63.00;;;;;;6165316;28;20069;-74
2021/10/29 06:28:48;;;;;;;15.30;5.25;;;11.70;63.30;;;;;;6195939;28;20030;-74
2021/10/29 06:31:49;;;;;;;11.88;4.80;;;11.60;63.30;;;;;;6197854;28;20494;-74
2021/10/29 06:34:50;;;;;;;17.55;5.43;;;11.70;63.30;;;;;;6195904;28;20514;-74
2021/10/29 06:37:51;;;;;;;14.25;5.38;;;11.70;63.40;;;;;;6198462;28;20050;-74
2021/10/29 06:40:52;;;;;;;15.50;5.43;;;11.70;63.40;;;;;;6197947;28;20049;-74
2021/10/29 06:44:46;;;;;;;10.30;5.28;;;11.70;63.30;;;;;;6179230;28;20476;-74
2021/10/29 07:01:01;;;;;;;14.68;6.22;;;11.80;63.10;;;;;;6128909;28;20046;-74
2021/10/29 07:40:46;;;;;;;14.48;5.20;;;12.30;62.10;;;;;;6144807;28;20130;-74
2021/10/29 07:43:49;;;;;;;12.93;4.75;;;12.40;62.00;;;;;;6138241;28;20471;-74
2021/10/29 07:46:50;;;;;;;13.13;6.13;;;12.50;61.80;;;;;;6192467;28;20046;-75
2021/10/29 07:49:51;;;;;;;13.75;5.68;;;12.50;61.70;;;;;;6195477;28;20044;-75
2021/10/29 07:52:53;;;;;;;20.23;5.63;;;12.60;61.40;;;;;;6193994;28;20476;-74
2021/10/29 07:55:57;;;;;;;13.30;5.70;;;12.70;61.30;;;;;;6195033;28;20057;-75
2021/10/29 07:58:58;;;;;;;15.93;5.03;;;12.80;61.10;;;;;;6195327;28;20034;-74
2021/10/29 08:01:59;;;;;;;23.67;5.68;;;12.80;60.90;;;;;;6200549;28;20117;-73
2021/10/29 08:05:01;;;;;;;11.75;5.43;;;12.90;60.80;;;;;;6192393;28;20050;-76
2021/10/29 08:08:02;;;;;;;15.52;6.30;;;13.00;60.70;;;;;;6199548;28;20065;-74
2021/10/29 08:11:03;;;;;;;17.65;7.22;;;13.10;60.50;;;;;;6200195;28;20034;-73
2021/10/29 08:14:05;;;;;;;21.35;8.90;;;13.20;60.30;;;;;;6192889;28;20490;-74
2021/10/29 08:17:06;;;;;;;16.17;6.43;;;13.30;60.10;;;;;;6208558;28;20030;-73
2021/10/29 08:20:11;;;;;;;17.95;6.55;;;13.40;59.90;;;;;;6200054;28;20125;-72
2021/10/29 08:23:13;;;;;;;19.77;6.75;;;13.50;59.70;;;;;;6200374;28;20038;-72
2021/10/29 08:26:14;;;;;;;13.32;6.15;;;13.60;59.70;;;;;;6201125;28;20402;-74
2021/10/29 08:29:15;;;;;;;13.63;6.15;;;13.70;59.50;;;;;;6199921;28;20045;-73
2021/10/29 08:32:17;;;;;;;15.13;7.00;;;13.70;59.30;;;;;;6201148;28;20065;-76
2021/10/29 08:35:18;;;;;;;22.10;7.47;;;13.80;59.20;;;;;;6198183;28;20034;-78
2021/10/29 08:38:21;;;;;;;19.25;6.35;;;13.90;59.20;;;;;;6198735;28;20038;-82
2021/10/29 08:41:23;;;;;;;16.98;7.32;;;14.00;59.10;;;;;;6186078;28;20105;-73
2021/10/29 08:44:25;;;;;;;18.45;6.82;;;14.10;58.90;;;;;;6201387;28;20408;-73
2021/10/29 08:47:26;;;;;;;16.48;6.30;;;14.30;58.80;;;;;;6195277;28;20052;-73
2021/10/29 08:50:27;;;;;;;18.58;6.68;;;14.40;58.70;;;;;;6192726;28;20070;-71
2021/10/29 08:53:28;;;;;;;13.48;6.47;;;14.50;58.50;;;;;;6189181;28;20042;-74
2021/10/29 08:56:29;;;;;;;18.25;6.78;;;14.60;58.30;;;;;;6200500;28;20046;-73
2021/10/29 08:59:34;;;;;;;17.20;6.45;;;14.70;58.20;;;;;;6198508;28;20463;-73
2021/10/29 09:02:54;;;;;;;19.00;7.07;;;14.80;58.00;;;;;;6169700;28;20034;-74
2021/10/29 09:09:50;;;;;;;16.88;7.63;;;15.00;57.80;;;;;;6148010;28;20447;-72
2021/10/29 09:33:05;;;;;;;15.88;7.03;;;15.70;57.30;;;;;;6151630;28;20043;-72
2021/10/29 09:36:28;;;;;;;14.88;6.20;;;15.90;57.10;;;;;;6164102;28;20057;-78
2021/10/29 09:39:29;;;;;;;23.35;5.57;;;16.10;56.90;;;;;;6167137;28;20047;-73
2021/10/29 09:42:40;;;;;;;18.55;7.28;;;16.20;56.60;;;;;;6128648;29;20155;-72
2021/10/29 09:45:49;;;;;;;15.48;7.15;;;16.30;56.30;;;;;;6167835;28;20046;-73
2021/10/29 09:48:55;;;;;;;16.08;6.90;;;16.40;56.20;;;;;;6191127;28;20042;-74
2021/10/29 09:55:23;;;;;;;18.33;5.90;;;16.70;55.20;;;;;;6196086;28;20325;-76
2021/10/29 09:58:24;;;;;;;17.92;6.88;;;16.90;54.80;;;;;;6195000;28;20054;-73
2021/10/29 10:01:27;;;;;;;21.88;8.55;;;17.20;54.00;;;;;;6174073;28;20046;-74
2021/10/29 10:04:29;;;;;;;22.17;9.90;;;17.60;53.40;;;;;;6191880;28;20126;-74
2021/10/29 10:07:38;;;;;;;31.35;9.10;;;17.90;52.70;;;;;;6189084;28;20042;-74
2021/10/29 10:10:43;;;;;;;20.40;8.55;;;18.20;51.80;;;;;;6197780;28;20038;-74
2021/10/29 10:13:45;;;;;;;23.70;7.13;;;18.50;51.00;;;;;;6196961;28;20109;-74
2021/10/29 10:16:47;;;;;;;17.33;6.25;;;18.70;50.20;;;;;;6198088;28;20040;-73
2021/10/29 10:19:50;;;;;;;18.67;7.43;;;18.90;49.50;;;;;;6196640;28;20069;-73
2021/10/29 10:22:51;;;;;;;14.32;5.55;;;19.00;49.30;;;;;;6197608;28;20066;-74
2021/10/29 10:42:26;;;;;;;10.98;4.53;;;20.50;47.40;;;;;;6196689;28;20030;-73
2021/10/29 10:45:47;;;;;;;12.55;4.25;;;20.80;46.90;;;;;;6189611;28;20097;-73
2021/10/29 10:49:12;;;;;;;11.02;5.50;;;21.10;46.50;;;;;;6190321;28;20355;-84
2021/10/29 10:52:23;;;;;;;10.50;5.13;;;21.40;45.80;;;;;;6188943;28;20034;-74
2021/10/29 10:55:50;;;;;;;14.48;4.47;;;21.80;44.30;;;;;;6194471;28;20455;-73
2021/10/29 10:59:25;;;;;;;16.60;5.55;;;22.20;43.70;;;;;;6176443;28;20099;-74
2021/10/29 11:12:15;;;;;;;14.15;5.07;;;23.50;40.30;;;;;;6194180;28;20030;-74
2021/10/29 11:15:25;;;;;;;13.55;5.40;;;23.50;39.80;;;;;;6195473;28;20181;-74
2021/10/29 11:18:33;;;;;;;6.50;3.45;;;23.60;40.00;;;;;;6176859;28;20045;-74
2021/10/29 11:21:35;;;;;;;;;;;23.60;39.70;;;;;;6194320;28;20432;-74
2021/10/29 11:24:40;;;;;;;14.50;4.95;;;23.60;39.40;;;;;;6187306;28;19914;-74
2021/10/29 11:27:42;;;;;;;12.63;5.22;;;23.60;39.20;;;;;;6179002;28;20130;-75
2021/10/29 11:30:44;;;;;;;10.35;5.22;;;23.40;39.60;;;;;;6194900;28;20045;-74
2021/10/29 11:33:48;;;;;;;17.48;4.47;;;23.40;39.40;;;;;;6178196;28;20038;-74
2021/10/29 11:36:52;;;;;;;17.17;4.95;;;23.20;39.40;;;;;;6194948;28;20447;-73
2021/10/29 11:39:53;;;;;;;10.52;4.25;;;23.00;39.40;;;;;;6196403;28;20125;-74
2021/10/29 11:42:55;;;;;;;17.88;4.63;;;22.70;39.50;;;;;;6179542;28;20031;-73
2021/10/29 11:46:04;;;;;;;16.00;4.32;;;22.40;39.70;;;;;;6196308;28;20042;-74
2021/10/29 11:49:08;;;;;;;19.90;4.63;;;22.20;39.70;;;;;;6194599;28;20034;-74
2021/10/29 11:52:09;;;;;;;18.30;4.43;;;22.10;40.10;;;;;;6173970;28;20121;-74
2021/10/29 11:55:24;;;;;;;15.10;4.10;;;22.00;40.40;;;;;;6196273;28;20118;-73
2021/10/29 11:58:54;;;;;;;7.57;3.95;;;22.00;40.70;;;;;;6189595;28;20449;-74
2021/10/29 12:08:28;;;;;;;11.90;3.78;;;22.20;40.40;;;;;;6190849;28;20062;-73
2021/10/29 12:11:31;;;;;;;11.25;3.67;;;22.30;40.20;;;;;;6191112;28;20073;-73
2021/10/29 12:14:34;;;;;;;9.88;3.38;;;22.40;40.20;;;;;;6194234;28;20335;-73
2021/10/29 12:17:58;;;;;;;15.32;3.63;;;22.40;40.20;;;;;;6176274;28;20038;-77
2021/10/29 12:20:59;;;;;;;11.27;4.00;;;22.50;40.20;;;;;;6192250;28;20474;-73
2021/10/29 12:24:05;;;;;;;14.07;3.60;;;22.60;40.00;;;;;;6207519;28;20038;-75
2021/10/29 12:27:14;;;;;;;8.63;3.47;;;22.60;40.00;;;;;;6192249;28;20125;-75
2021/10/29 12:30:27;;;;;;;4.90;2.97;;;22.50;39.70;;;;;;6185505;28;20038;-75
2021/10/29 13:03:25;;;;;;;6.90;2.42;;;22.30;39.40;;;;;;6169578;28;20499;-73
2021/10/29 13:06:55;;;;;;;9.75;2.00;;;22.30;39.30;;;;;;6151673;28;20038;-73
2021/10/29 13:10:07;;;;;;;9.10;2.15;;;22.30;39.10;;;;;;6167067;28;20042;-72
2021/10/29 13:13:15;;;;;;;7.60;2.85;;;22.40;38.90;;;;;;6156109;28;20039;-74
2021/10/29 13:16:41;;;;;;;6.65;2.00;;;22.50;38.60;;;;;;6183695;28;20038;-73
2021/10/29 13:26:36;;;;;;;7.38;1.92;;;22.70;37.00;;;;;;6198229;28;20052;-73
2021/10/29 13:52:54;;;;;;;4.35;1.10;;;23.10;34.40;;;;;;6196613;28;20042;-72
2021/10/29 13:56:05;;;;;;;0.60;0.60;;;23.20;33.20;;;;;;6178623;28;20034;-72
2021/10/29 14:02:33;;;;;;;1.38;1.02;;;23.50;32.20;;;;;;6196880;28;20184;-72
2021/10/29 14:28:31;;;;;;;1.88;0.90;;;24.30;28.90;;;;;;6193166;28;20042;-73
2021/10/29 14:34:53;;;;;;;1.10;0.73;;;24.30;29.30;;;;;;6189861;28;20122;-73
2021/10/29 14:44:51;;;;;;;0.98;0.85;;;24.20;28.90;;;;;;6191203;28;20034;-72
2021/10/29 14:51:48;;;;;;;11.57;1.05;;;24.10;28.50;;;;;;6165768;28;20140;-74
2021/10/29 15:17:54;;;;;;;0.73;0.50;;;23.90;28.80;;;;;;6182527;28;20042;-70
2021/10/29 15:28:32;;;;;;;2.08;1.10;;;23.70;29.60;;;;;;6109557;29;20063;-71
2021/10/29 15:47:12;;;;;;;3.85;1.30;;;23.30;29.70;;;;;;6102358;29;20187;-77
2021/10/29 15:50:16;;;;;;;3.53;0.70;;;23.20;31.20;;;;;;6111739;29;20036;-71
2021/10/29 15:53:18;;;;;;;4.40;0.77;;;23.10;30.80;;;;;;6119443;29;20122;-70
2021/10/29 15:56:30;;;;;;;2.80;1.27;;;23.00;30.20;;;;;;6119315;29;20039;-70
2021/10/29 15:59:43;;;;;;;1.58;0.80;;;23.00;30.00;;;;;;6120935;29;20479;-71
2021/10/29 16:02:49;;;;;;;1.40;0.90;;;22.90;30.00;;;;;;6193821;28;20046;-71
2021/10/29 16:19:08;;;;;;;6.25;1.10;;;22.60;30.50;;;;;;6195883;28;20030;-71
2021/10/29 16:22:17;;;;;;;2.25;1.17;;;22.50;30.60;;;;;;6197901;28;20041;-71
2021/10/29 16:25:21;;;;;;;1.77;1.10;;;22.50;30.70;;;;;;6201180;28;20089;-71
2021/10/29 16:28:26;;;;;;;2.72;1.83;;;22.40;30.70;;;;;;6201215;28;20054;-71
2021/10/29 16:31:27;;;;;;;3.00;1.13;;;22.40;30.90;;;;;;6201231;28;20408;-70
2021/10/29 16:34:28;;;;;;;1.52;0.82;;;22.40;31.40;;;;;;6215868;28;20057;-71
2021/10/29 16:37:29;;;;;;;3.10;1.20;;;22.30;30.90;;;;;;6183714;28;20349;-71
2021/10/29 16:40:30;;;;;;;4.70;1.50;;;22.30;31.00;;;;;;6200666;28;20065;-71
2021/10/29 16:43:36;;;;;;;3.63;1.45;;;22.30;31.10;;;;;;6199724;28;20046;-71
2021/10/29 16:46:37;;;;;;;5.32;1.08;;;22.30;31.20;;;;;;6200661;28;20408;-71
2021/10/29 16:49:38;;;;;;;1.30;0.90;;;22.30;31.10;;;;;;6183068;28;20043;-70
2021/10/29 16:52:39;;;;;;;2.10;1.02;;;22.20;31.10;;;;;;6199813;28;20360;-70
2021/10/29 16:55:41;;;;;;;4.38;1.30;;;22.20;31.00;;;;;;6198768;28;20038;-71
2021/10/29 16:58:42;;;;;;;4.90;1.30;;;22.20;31.20;;;;;;6201616;28;20105;-72
2021/10/29 17:01:44;;;;;;;4.75;1.40;;;22.20;31.30;;;;;;6200657;28;20444;-71
2021/10/29 17:04:44;;;;;;;6.07;1.45;;;22.20;31.30;;;;;;6200480;28;20034;-72
2021/10/29 17:07:45;;;;;;;4.65;1.10;;;22.10;31.30;;;;;;6201106;28;20038;-71
2021/10/29 17:10:49;;;;;;;6.03;1.40;;;22.10;31.30;;;;;;6201440;28;20034;-70
2021/10/29 17:13:50;;;;;;;3.70;1.75;;;22.00;31.40;;;;;;6200430;28;20101;-71
2021/10/29 17:16:52;;;;;;;4.35;1.90;;;22.00;31.60;;;;;;6200661;28;20045;-70
2021/10/29 17:19:52;;;;;;;10.00;3.30;;;21.90;31.70;;;;;;6200846;28;20046;-71
2021/10/29 17:22:53;;;;;;;10.82;4.78;;;21.90;31.70;;;;;;6201510;28;20507;-71
2021/10/29 17:25:55;;;;;;;8.82;3.78;;;21.80;31.70;;;;;;6200347;28;20050;-71
2021/10/29 17:28:56;;;;;;;8.48;1.80;;;21.80;31.80;;;;;;6216364;28;20114;-71
2021/10/29 17:31:57;;;;;;;5.55;2.50;;;21.70;31.80;;;;;;6199819;28;20030;-71
2021/10/29 17:34:58;;;;;;;6.75;1.98;;;21.70;31.90;;;;;;6200211;28;20035;-71
2021/10/29 17:37:59;;;;;;;4.97;2.05;;;21.70;31.80;;;;;;6199437;28;20046;-71
2021/10/29 17:41:00;;;;;;;6.90;2.10;;;21.70;31.90;;;;;;6199086;28;20157;-71
2021/10/29 17:44:03;;;;;;;5.68;1.85;;;21.70;31.90;;;;;;6199629;28;20050;-71
2021/10/29 17:47:05;;;;;;;1.48;1.02;;;21.70;31.90;;;;;;6200580;28;20042;-70
2021/10/29 17:50:08;;;;;;;3.22;1.48;;;21.70;31.70;;;;;;6200200;28;20042;-71
2021/10/29 17:53:09;;;;;;;1.70;1.08;;;21.70;31.50;;;;;;6200385;28;20038;-71
2021/10/29 17:56:11;;;;;;;3.50;1.40;;;21.70;31.50;;;;;;6199878;28;20096;-71
2021/10/29 17:59:12;;;;;;;4.50;1.30;;;21.70;31.60;;;;;;6199101;28;20157;-71
2021/10/29 18:02:20;;;;;;;5.05;1.27;;;21.70;31.50;;;;;;6200040;28;20034;-71
2021/10/29 18:05:21;;;;;;;1.92;0.95;;;21.80;31.20;;;;;;6199013;28;20034;-70
2021/10/29 18:08:51;;;;;;;2.85;1.30;;;21.80;31.10;;;;;;6214804;28;20077;-70
2021/10/29 18:11:43;;;;;;;1.20;1.10;;;21.80;31.20;;;;;;6196705;28;20356;-71
2021/10/29 18:14:45;;;;;;;4.25;0.93;;;21.80;31.20;;;;;;6198847;28;20038;-71
2021/10/29 18:17:45;;;;;;;1.38;1.10;;;21.80;30.90;;;;;;6199370;28;20133;-71
2021/10/29 18:20:46;;;;;;;4.15;1.17;;;21.80;30.90;;;;;;6199413;28;20072;-71
2021/10/29 18:23:54;;;;;;;4.32;1.20;;;21.80;30.60;;;;;;6198749;28;20034;-70
2021/10/29 18:26:55;;;;;;;2.40;1.27;;;21.80;30.60;;;;;;6199124;28;20121;-70
2021/10/29 18:29:57;;;;;;;4.70;1.35;;;21.80;30.70;;;;;;6199405;28;20351;-70
2021/10/29 18:32:58;;;;;;;1.63;0.93;;;21.80;30.70;;;;;;6198583;28;20034;-71
2021/10/29 18:35:59;;;;;;;7.65;1.58;;;21.90;30.50;;;;;;6199324;28;20037;-70
2021/10/29 18:39:00;;;;;;;5.68;1.30;;;21.90;30.60;;;;;;6182217;28;20057;-71
2021/10/29 18:42:01;;;;;;;3.75;1.30;;;21.90;30.60;;;;;;6198235;28;20035;-71
2021/10/29 18:45:04;;;;;;;2.60;1.20;;;21.90;30.50;;;;;;6196056;28;20125;-71
2021/10/29 18:48:05;;;;;;;5.40;1.30;;;21.90;30.20;;;;;;6189723;28;20440;-71
2021/10/29 18:51:06;;;;;;;3.25;1.33;;;21.90;30.10;;;;;;6211943;28;20085;-71
2021/10/29 18:54:08;;;;;;;5.50;1.20;;;21.90;30.20;;;;;;6198085;28;20030;-71
2021/10/29 18:57:09;;;;;;;2.70;1.42;;;21.90;30.30;;;;;;6197849;28;20372;-71
2021/10/29 19:00:13;;;;;;;6.47;1.27;;;21.80;30.50;;;;;;6181702;28;20523;-72
2021/10/29 19:03:14;;;;;;;2.42;1.67;;;21.80;30.60;;;;;;6197696;28;20042;-70
2021/10/29 19:06:15;;;;;;;5.10;1.20;;;21.80;30.50;;;;;;6196279;28;20050;-71
2021/10/29 19:09:17;;;;;;;3.65;1.17;;;21.80;30.70;;;;;;6197265;28;20057;-70
2021/10/29 19:12:18;;;;;;;8.00;1.15;;;21.70;30.80;;;;;;6198077;28;20532;-71
2021/10/29 19:15:20;;;;;;;2.78;0.98;;;21.70;30.80;;;;;;6199043;28;20042;-71
2021/10/29 19:18:21;;;;;;;2.85;1.20;;;21.70;30.90;;;;;;6198498;28;20042;-71
2021/10/29 19:21:23;;;;;;;2.63;0.93;;;21.70;31.10;;;;;;6198104;28;20050;-71
2021/10/29 19:24:23;;;;;;;1.63;1.00;;;21.70;31.10;;;;;;6196566;28;20034;-71
2021/10/29 19:27:24;;;;;;;3.58;0.98;;;21.60;31.10;;;;;;6214055;28;20046;-70
2021/10/29 19:30:26;;;;;;;4.20;1.08;;;21.60;31.20;;;;;;6198643;28;20068;-71
2021/10/29 19:33:26;;;;;;;8.07;1.10;;;21.60;31.20;;;;;;6198557;28;20038;-71
2021/10/29 19:36:37;;;;;;;1.75;1.30;;;21.60;31.20;;;;;;6198395;28;20039;-70
2021/10/29 19:39:49;;;;;;;3.50;1.50;;;21.60;31.20;;;;;;6198394;28;20423;-71
2021/10/29 19:42:50;;;;;;;3.85;1.20;;;21.60;31.30;;;;;;6196444;28;20066;-71
2021/10/29 19:45:52;;;;;;;1.95;1.25;;;21.60;31.20;;;;;;6196222;28;20042;-70
2021/10/29 19:48:53;;;;;;;1.83;1.20;;;21.60;31.30;;;;;;6196855;28;20022;-71
2021/10/29 19:51:58;;;;;;;2.53;1.38;;;21.50;31.30;;;;;;6196506;28;20124;-71
2021/10/29 19:55:02;;;;;;;2.60;1.13;;;21.50;31.40;;;;;;6195296;28;20054;-71
2021/10/29 20:01:03;;;;;;;3.53;1.35;;;21.40;31.60;;;;;;6202287;28;20464;-71
2021/10/29 20:04:04;;;;;;;4.25;1.35;;;21.30;31.70;;;;;;6202550;28;20146;-71
2021/10/29 20:07:05;;;;;;;3.10;1.15;;;21.30;31.80;;;;;;6202217;28;20485;-70
2021/10/29 20:10:07;;;;;;;4.10;1.42;;;21.20;31.80;;;;;;6185957;28;20047;-71
2021/10/29 20:13:08;;;;;;;2.00;0.95;;;21.30;32.00;;;;;;6186155;28;20042;-71
2021/10/29 20:16:10;;;;;;;2.45;0.90;;;21.20;32.00;;;;;;6202437;28;20093;-71
2021/10/29 20:19:11;;;;;;;2.03;1.23;;;21.20;32.00;;;;;;6202888;28;20113;-71
2021/10/29 20:22:11;;;;;;;2.92;1.40;;;21.20;32.20;;;;;;6202412;28;20045;-70
2021/10/29 20:25:12;;;;;;;3.33;1.20;;;21.10;32.20;;;;;;6202366;28;20034;-71